sensor_id;sensor_type;location;lat;lon;timestamp;P1;durP1;ratioP1;P2;durP2;ratioP2
24801;SDS011;12898;50.520;12.152;2023-03-03T00:01:26;69.10;;;34.63;;
24801;SDS011;12898;50.520;12.152;2023-03-03T00:03:52;68.30;;;32.47;;
24801;SDS011;12898;50.520;12.152;2023-03-03T00:06:19;73.77;;;35.43;;
24801;SDS011;12898;50.520;12.152;2023-03-03T00:08:45;65.77;;;32.10;;
24801;SDS011;12898;50.520;12.152;2023-03-03T00:11:11;66.57;;;33.97;;
24801;SDS011;12898;50.520;12.152;2023-03-03T00:13:48;66.63;;;35.33;;
24801;SDS011;12898;50.520;12.152;2023-03-03T00:16:36;67.97;;;34.70;;
24801;SDS011;12898;50.520;12.152;2023-03-03T00:19:06;69.50;;;34.47;;
24801;SDS011;12898;50.520;12.152;2023-03-03T00:21:40;71.83;;;34.57;;
24801;SDS011;12898;50.520;12.152;2023-03-03T00:26:54;67.77;;;34.30;;
24801;SDS011;12898;50.520;12.152;2023-03-03T00:29:35;65.80;;;33.23;;
24801;SDS011;12898;50.520;12.152;2023-03-03T00:34:51;66.40;;;33.17;;
24801;SDS011;12898;50.520;12.152;2023-03-03T00:40:11;68.20;;;34.10;;
24801;SDS011;12898;50.520;12.152;2023-03-03T00:42:41;65.67;;;33.67;;
24801;SDS011;12898;50.520;12.152;2023-03-03T00:45:38;60.53;;;32.47;;
24801;SDS011;12898;50.520;12.152;2023-03-03T00:48:10;68.87;;;32.00;;
24801;SDS011;12898;50.520;12.152;2023-03-03T00:50:58;64.40;;;33.10;;
24801;SDS011;12898;50.520;12.152;2023-03-03T00:53:27;67.37;;;34.07;;
24801;SDS011;12898;50.520;12.152;2023-03-03T00:55:55;66.63;;;33.70;;
24801;SDS011;12898;50.520;12.152;2023-03-03T00:58:22;67.30;;;33.53;;
24801;SDS011;12898;50.520;12.152;2023-03-03T01:00:50;66.57;;;31.77;;
24801;SDS011;12898;50.520;12.152;2023-03-03T01:03:19;63.67;;;33.70;;
24801;SDS011;12898;50.520;12.152;2023-03-03T01:05:47;69.30;;;32.87;;
24801;SDS011;12898;50.520;12.152;2023-03-03T01:08:13;67.03;;;32.97;;
24801;SDS011;12898;50.520;12.152;2023-03-03T01:10:41;66.90;;;33.03;;
24801;SDS011;12898;50.520;12.152;2023-03-03T01:13:27;69.23;;;32.67;;
24801;SDS011;12898;50.520;12.152;2023-03-03T01:15:58;63.10;;;32.47;;
24801;SDS011;12898;50.520;12.152;2023-03-03T01:18:24;64.93;;;32.63;;
24801;SDS011;12898;50.520;12.152;2023-03-03T01:20:50;64.97;;;32.50;;
24801;SDS011;12898;50.520;12.152;2023-03-03T01:23:15;67.90;;;32.70;;
24801;SDS011;12898;50.520;12.152;2023-03-03T01:25:41;63.60;;;31.63;;
24801;SDS011;12898;50.520;12.152;2023-03-03T01:28:07;67.93;;;34.90;;
24801;SDS011;12898;50.520;12.152;2023-03-03T01:30:33;68.83;;;33.30;;
24801;SDS011;12898;50.520;12.152;2023-03-03T01:32:59;61.87;;;31.60;;
24801;SDS011;12898;50.520;12.152;2023-03-03T01:35:24;66.90;;;33.60;;
24801;SDS011;12898;50.520;12.152;2023-03-03T01:37:50;59.83;;;31.87;;
24801;SDS011;12898;50.520;12.152;2023-03-03T01:40:20;64.20;;;33.37;;
24801;SDS011;12898;50.520;12.152;2023-03-03T01:42:51;59.30;;;31.20;;
24801;SDS011;12898;50.520;12.152;2023-03-03T01:48:02;60.27;;;31.60;;
24801;SDS011;12898;50.520;12.152;2023-03-03T01:50:35;62.93;;;32.13;;
24801;SDS011;12898;50.520;12.152;2023-03-03T01:53:14;65.13;;;33.13;;
24801;SDS011;12898;50.520;12.152;2023-03-03T01:55:47;63.13;;;32.37;;
24801;SDS011;12898;50.520;12.152;2023-03-03T01:58:17;60.37;;;31.03;;
24801;SDS011;12898;50.520;12.152;2023-03-03T02:00:54;63.00;;;31.30;;
24801;SDS011;12898;50.520;12.152;2023-03-03T02:03:27;64.87;;;31.27;;
24801;SDS011;12898;50.520;12.152;2023-03-03T02:05:54;62.00;;;31.10;;
24801;SDS011;12898;50.520;12.152;2023-03-03T02:08:29;62.63;;;31.13;;
24801;SDS011;12898;50.520;12.152;2023-03-03T02:11:03;56.23;;;31.20;;
24801;SDS011;12898;50.520;12.152;2023-03-03T02:13:30;60.30;;;31.80;;
24801;SDS011;12898;50.520;12.152;2023-03-03T02:15:56;57.53;;;31.53;;
24801;SDS011;12898;50.520;12.152;2023-03-03T02:18:23;59.03;;;30.37;;
24801;SDS011;12898;50.520;12.152;2023-03-03T02:23:50;59.73;;;29.57;;
24801;SDS011;12898;50.520;12.152;2023-03-03T02:26:30;50.87;;;29.30;;
24801;SDS011;12898;50.520;12.152;2023-03-03T02:28:58;59.80;;;30.13;;
24801;SDS011;12898;50.520;12.152;2023-03-03T02:31:25;63.77;;;30.23;;
24801;SDS011;12898;50.520;12.152;2023-03-03T02:33:54;56.73;;;29.20;;
24801;SDS011;12898;50.520;12.152;2023-03-03T02:36:23;60.70;;;29.33;;
24801;SDS011;12898;50.520;12.152;2023-03-03T02:44:21;54.50;;;29.00;;
24801;SDS011;12898;50.520;12.152;2023-03-03T02:46:50;55.57;;;28.47;;
24801;SDS011;12898;50.520;12.152;2023-03-03T02:49:22;57.60;;;28.37;;
24801;SDS011;12898;50.520;12.152;2023-03-03T02:51:52;60.77;;;28.43;;
24801;SDS011;12898;50.520;12.152;2023-03-03T02:54:18;51.13;;;26.50;;
24801;SDS011;12898;50.520;12.152;2023-03-03T02:56:46;52.97;;;27.50;;
24801;SDS011;12898;50.520;12.152;2023-03-03T02:59:12;51.80;;;27.70;;
24801;SDS011;12898;50.520;12.152;2023-03-03T03:01:39;56.00;;;29.13;;
24801;SDS011;12898;50.520;12.152;2023-03-03T03:04:09;52.70;;;27.17;;
24801;SDS011;12898;50.520;12.152;2023-03-03T03:06:41;53.17;;;26.57;;
24801;SDS011;12898;50.520;12.152;2023-03-03T03:09:08;53.10;;;28.43;;
24801;SDS011;12898;50.520;12.152;2023-03-03T03:11:35;58.03;;;29.17;;
24801;SDS011;12898;50.520;12.152;2023-03-03T03:14:02;53.60;;;27.93;;
24801;SDS011;12898;50.520;12.152;2023-03-03T03:16:34;52.33;;;27.83;;
24801;SDS011;12898;50.520;12.152;2023-03-03T03:19:01;56.07;;;28.20;;
24801;SDS011;12898;50.520;12.152;2023-03-03T03:21:28;53.67;;;27.40;;
24801;SDS011;12898;50.520;12.152;2023-03-03T03:23:55;56.13;;;29.20;;
24801;SDS011;12898;50.520;12.152;2023-03-03T03:26:20;51.70;;;26.70;;
24801;SDS011;12898;50.520;12.152;2023-03-03T03:28:47;49.43;;;25.93;;
24801;SDS011;12898;50.520;12.152;2023-03-03T03:31:15;52.87;;;28.03;;
24801;SDS011;12898;50.520;12.152;2023-03-03T03:33:42;55.30;;;29.13;;
24801;SDS011;12898;50.520;12.152;2023-03-03T03:36:08;59.67;;;29.30;;
24801;SDS011;12898;50.520;12.152;2023-03-03T03:38:35;49.13;;;26.17;;
24801;SDS011;12898;50.520;12.152;2023-03-03T03:41:02;51.67;;;27.67;;
24801;SDS011;12898;50.520;12.152;2023-03-03T03:43:28;52.80;;;27.07;;
24801;SDS011;12898;50.520;12.152;2023-03-03T03:45:54;53.43;;;27.73;;
24801;SDS011;12898;50.520;12.152;2023-03-03T03:48:20;56.97;;;28.17;;
24801;SDS011;12898;50.520;12.152;2023-03-03T03:50:49;47.97;;;26.47;;
24801;SDS011;12898;50.520;12.152;2023-03-03T03:53:15;52.93;;;27.33;;
24801;SDS011;12898;50.520;12.152;2023-03-03T03:55:42;50.43;;;26.70;;
24801;SDS011;12898;50.520;12.152;2023-03-03T03:58:13;52.83;;;27.27;;
24801;SDS011;12898;50.520;12.152;2023-03-03T04:00:41;54.50;;;27.57;;
24801;SDS011;12898;50.520;12.152;2023-03-03T04:03:07;54.57;;;26.73;;
24801;SDS011;12898;50.520;12.152;2023-03-03T04:05:34;49.30;;;26.37;;
24801;SDS011;12898;50.520;12.152;2023-03-03T04:08:00;49.30;;;26.47;;
24801;SDS011;12898;50.520;12.152;2023-03-03T04:10:26;49.83;;;26.07;;
24801;SDS011;12898;50.520;12.152;2023-03-03T04:12:52;51.80;;;26.43;;
24801;SDS011;12898;50.520;12.152;2023-03-03T04:15:17;54.20;;;27.70;;
24801;SDS011;12898;50.520;12.152;2023-03-03T04:17:43;51.03;;;27.20;;
24801;SDS011;12898;50.520;12.152;2023-03-03T04:20:10;51.43;;;27.47;;
24801;SDS011;12898;50.520;12.152;2023-03-03T04:22:39;57.13;;;27.57;;
24801;SDS011;12898;50.520;12.152;2023-03-03T04:25:05;56.70;;;27.73;;
24801;SDS011;12898;50.520;12.152;2023-03-03T04:27:32;55.97;;;29.10;;
24801;SDS011;12898;50.520;12.152;2023-03-03T04:29:59;59.50;;;28.87;;
24801;SDS011;12898;50.520;12.152;2023-03-03T04:32:25;52.47;;;27.17;;
24801;SDS011;12898;50.520;12.152;2023-03-03T04:34:51;56.83;;;28.50;;
24801;SDS011;12898;50.520;12.152;2023-03-03T04:37:17;57.63;;;28.23;;
24801;SDS011;12898;50.520;12.152;2023-03-03T04:39:43;56.20;;;27.77;;
24801;SDS011;12898;50.520;12.152;2023-03-03T04:42:09;58.70;;;28.47;;
24801;SDS011;12898;50.520;12.152;2023-03-03T04:44:35;59.27;;;29.40;;
24801;SDS011;12898;50.520;12.152;2023-03-03T04:47:01;60.17;;;28.80;;
24801;SDS011;12898;50.520;12.152;2023-03-03T04:49:26;55.37;;;28.27;;
24801;SDS011;12898;50.520;12.152;2023-03-03T04:51:52;52.80;;;26.37;;
24801;SDS011;12898;50.520;12.152;2023-03-03T04:54:18;60.10;;;28.03;;
24801;SDS011;12898;50.520;12.152;2023-03-03T04:56:44;54.90;;;27.50;;
24801;SDS011;12898;50.520;12.152;2023-03-03T04:59:10;52.00;;;27.80;;
24801;SDS011;12898;50.520;12.152;2023-03-03T05:01:35;52.30;;;25.23;;
24801;SDS011;12898;50.520;12.152;2023-03-03T05:04:01;53.60;;;27.60;;
24801;SDS011;12898;50.520;12.152;2023-03-03T05:06:27;53.83;;;27.30;;
24801;SDS011;12898;50.520;12.152;2023-03-03T05:08:53;54.63;;;26.93;;
24801;SDS011;12898;50.520;12.152;2023-03-03T05:11:18;52.77;;;25.80;;
24801;SDS011;12898;50.520;12.152;2023-03-03T05:13:44;57.57;;;28.50;;
24801;SDS011;12898;50.520;12.152;2023-03-03T05:16:10;53.27;;;26.40;;
24801;SDS011;12898;50.520;12.152;2023-03-03T05:18:35;59.27;;;27.10;;
24801;SDS011;12898;50.520;12.152;2023-03-03T05:21:01;59.43;;;28.43;;
24801;SDS011;12898;50.520;12.152;2023-03-03T05:23:27;52.07;;;25.97;;
24801;SDS011;12898;50.520;12.152;2023-03-03T05:25:53;53.10;;;25.87;;
24801;SDS011;12898;50.520;12.152;2023-03-03T05:28:19;53.47;;;25.00;;
24801;SDS011;12898;50.520;12.152;2023-03-03T05:30:45;55.63;;;26.57;;
24801;SDS011;12898;50.520;12.152;2023-03-03T05:33:11;54.80;;;25.70;;
24801;SDS011;12898;50.520;12.152;2023-03-03T05:35:39;58.93;;;27.23;;
24801;SDS011;12898;50.520;12.152;2023-03-03T05:38:04;53.07;;;25.30;;
24801;SDS011;12898;50.520;12.152;2023-03-03T05:40:30;54.30;;;26.93;;
24801;SDS011;12898;50.520;12.152;2023-03-03T05:42:56;59.60;;;26.67;;
24801;SDS011;12898;50.520;12.152;2023-03-03T05:45:22;53.57;;;25.57;;
24801;SDS011;12898;50.520;12.152;2023-03-03T05:47:51;50.70;;;24.83;;
24801;SDS011;12898;50.520;12.152;2023-03-03T05:50:19;54.80;;;26.33;;
24801;SDS011;12898;50.520;12.152;2023-03-03T05:52:49;47.47;;;24.07;;
24801;SDS011;12898;50.520;12.152;2023-03-03T05:55:16;58.23;;;26.77;;
24801;SDS011;12898;50.520;12.152;2023-03-03T05:57:42;54.27;;;26.33;;
24801;SDS011;12898;50.520;12.152;2023-03-03T06:00:08;51.63;;;25.23;;
24801;SDS011;12898;50.520;12.152;2023-03-03T06:02:35;54.93;;;25.73;;
24801;SDS011;12898;50.520;12.152;2023-03-03T06:05:01;53.33;;;26.40;;
24801;SDS011;12898;50.520;12.152;2023-03-03T06:07:27;58.03;;;26.40;;
24801;SDS011;12898;50.520;12.152;2023-03-03T06:09:53;56.23;;;26.30;;
24801;SDS011;12898;50.520;12.152;2023-03-03T06:12:18;50.43;;;25.60;;
24801;SDS011;12898;50.520;12.152;2023-03-03T06:14:44;56.87;;;24.37;;
24801;SDS011;12898;50.520;12.152;2023-03-03T06:17:09;52.70;;;25.50;;
24801;SDS011;12898;50.520;12.152;2023-03-03T06:19:35;50.47;;;23.87;;
24801;SDS011;12898;50.520;12.152;2023-03-03T06:22:01;50.77;;;25.20;;
24801;SDS011;12898;50.520;12.152;2023-03-03T06:24:27;47.53;;;24.03;;
24801;SDS011;12898;50.520;12.152;2023-03-03T06:26:55;51.37;;;24.53;;
24801;SDS011;12898;50.520;12.152;2023-03-03T06:29:22;50.23;;;24.60;;
24801;SDS011;12898;50.520;12.152;2023-03-03T06:31:47;51.23;;;25.43;;
24801;SDS011;12898;50.520;12.152;2023-03-03T06:34:13;51.83;;;24.63;;
24801;SDS011;12898;50.520;12.152;2023-03-03T06:36:39;57.33;;;25.93;;
24801;SDS011;12898;50.520;12.152;2023-03-03T06:39:05;54.13;;;25.60;;
24801;SDS011;12898;50.520;12.152;2023-03-03T06:41:30;55.40;;;24.97;;
24801;SDS011;12898;50.520;12.152;2023-03-03T06:43:56;53.73;;;23.73;;
24801;SDS011;12898;50.520;12.152;2023-03-03T06:46:24;52.40;;;24.30;;
24801;SDS011;12898;50.520;12.152;2023-03-03T06:48:50;52.57;;;24.00;;
24801;SDS011;12898;50.520;12.152;2023-03-03T06:53:53;49.83;;;23.93;;
24801;SDS011;12898;50.520;12.152;2023-03-03T06:56:24;52.77;;;23.30;;
24801;SDS011;12898;50.520;12.152;2023-03-03T06:58:57;53.10;;;23.50;;
24801;SDS011;12898;50.520;12.152;2023-03-03T07:01:24;50.33;;;22.63;;
24801;SDS011;12898;50.520;12.152;2023-03-03T07:03:55;54.60;;;24.80;;
24801;SDS011;12898;50.520;12.152;2023-03-03T07:06:22;51.10;;;23.07;;
24801;SDS011;12898;50.520;12.152;2023-03-03T07:08:52;52.97;;;23.73;;
24801;SDS011;12898;50.520;12.152;2023-03-03T07:11:20;50.70;;;23.87;;
24801;SDS011;12898;50.520;12.152;2023-03-03T07:13:50;52.80;;;22.87;;
24801;SDS011;12898;50.520;12.152;2023-03-03T07:16:28;54.33;;;23.70;;
24801;SDS011;12898;50.520;12.152;2023-03-03T07:18:56;53.67;;;23.13;;
24801;SDS011;12898;50.520;12.152;2023-03-03T07:21:35;49.10;;;22.10;;
24801;SDS011;12898;50.520;12.152;2023-03-03T07:26:53;44.90;;;21.60;;
24801;SDS011;12898;50.520;12.152;2023-03-03T07:29:38;45.80;;;21.87;;
24801;SDS011;12898;50.520;12.152;2023-03-03T07:35:07;47.83;;;22.53;;
24801;SDS011;12898;50.520;12.152;2023-03-03T07:41:03;41.47;;;20.43;;
24801;SDS011;12898;50.520;12.152;2023-03-03T07:43:36;41.40;;;19.70;;
24801;SDS011;12898;50.520;12.152;2023-03-03T07:48:36;44.07;;;20.03;;
24801;SDS011;12898;50.520;12.152;2023-03-03T07:51:15;45.90;;;21.17;;
24801;SDS011;12898;50.520;12.152;2023-03-03T07:53:47;46.63;;;20.73;;
24801;SDS011;12898;50.520;12.152;2023-03-03T07:56:20;48.90;;;21.80;;
24801;SDS011;12898;50.520;12.152;2023-03-03T07:58:53;45.27;;;21.90;;
24801;SDS011;12898;50.520;12.152;2023-03-03T08:03:55;47.03;;;20.53;;
24801;SDS011;12898;50.520;12.152;2023-03-03T08:06:30;48.70;;;22.10;;
24801;SDS011;12898;50.520;12.152;2023-03-03T08:09:01;46.90;;;21.07;;
24801;SDS011;12898;50.520;12.152;2023-03-03T08:14:24;45.40;;;21.67;;
24801;SDS011;12898;50.520;12.152;2023-03-03T08:16:54;47.53;;;23.10;;
24801;SDS011;12898;50.520;12.152;2023-03-03T08:19:21;46.83;;;21.37;;
24801;SDS011;12898;50.520;12.152;2023-03-03T08:21:47;50.67;;;22.73;;
24801;SDS011;12898;50.520;12.152;2023-03-03T08:24:13;47.37;;;22.37;;
24801;SDS011;12898;50.520;12.152;2023-03-03T08:26:38;45.97;;;21.70;;
24801;SDS011;12898;50.520;12.152;2023-03-03T08:29:04;48.23;;;21.80;;
24801;SDS011;12898;50.520;12.152;2023-03-03T08:31:30;47.93;;;22.80;;
24801;SDS011;12898;50.520;12.152;2023-03-03T08:33:56;53.30;;;21.50;;
24801;SDS011;12898;50.520;12.152;2023-03-03T08:36:22;51.23;;;22.70;;
24801;SDS011;12898;50.520;12.152;2023-03-03T08:38:48;53.97;;;23.10;;
24801;SDS011;12898;50.520;12.152;2023-03-03T08:41:14;50.47;;;22.20;;
24801;SDS011;12898;50.520;12.152;2023-03-03T08:43:40;51.60;;;23.97;;
24801;SDS011;12898;50.520;12.152;2023-03-03T08:46:07;50.53;;;22.57;;
24801;SDS011;12898;50.520;12.152;2023-03-03T08:48:34;56.50;;;23.90;;
24801;SDS011;12898;50.520;12.152;2023-03-03T08:51:00;50.50;;;23.40;;
24801;SDS011;12898;50.520;12.152;2023-03-03T08:53:26;51.60;;;23.43;;
24801;SDS011;12898;50.520;12.152;2023-03-03T08:55:52;54.13;;;22.47;;
24801;SDS011;12898;50.520;12.152;2023-03-03T08:58:19;56.13;;;23.17;;
24801;SDS011;12898;50.520;12.152;2023-03-03T09:00:45;49.33;;;22.03;;
24801;SDS011;12898;50.520;12.152;2023-03-03T09:03:11;49.20;;;23.20;;
24801;SDS011;12898;50.520;12.152;2023-03-03T09:05:37;59.93;;;23.33;;
24801;SDS011;12898;50.520;12.152;2023-03-03T09:08:06;56.43;;;22.87;;
24801;SDS011;12898;50.520;12.152;2023-03-03T09:10:32;53.80;;;23.37;;
24801;SDS011;12898;50.520;12.152;2023-03-03T09:13:01;54.90;;;22.70;;
24801;SDS011;12898;50.520;12.152;2023-03-03T09:15:36;50.90;;;22.37;;
24801;SDS011;12898;50.520;12.152;2023-03-03T09:18:13;48.57;;;22.20;;
24801;SDS011;12898;50.520;12.152;2023-03-03T09:20:51;47.70;;;21.57;;
24801;SDS011;12898;50.520;12.152;2023-03-03T09:31:47;46.93;;;19.80;;
24801;SDS011;12898;50.520;12.152;2023-03-03T09:34:48;40.80;;;20.00;;
24801;SDS011;12898;50.520;12.152;2023-03-03T09:39:47;36.27;;;17.37;;
24801;SDS011;12898;50.520;12.152;2023-03-03T09:45:34;42.30;;;18.57;;
24801;SDS011;12898;50.520;12.152;2023-03-03T09:48:43;41.53;;;19.00;;
24801;SDS011;12898;50.520;12.152;2023-03-03T09:54:07;37.23;;;16.47;;
24801;SDS011;12898;50.520;12.152;2023-03-03T10:00:16;40.97;;;18.03;;
24801;SDS011;12898;50.520;12.152;2023-03-03T10:11:40;39.93;;;18.30;;
24801;SDS011;12898;50.520;12.152;2023-03-03T10:20:32;38.20;;;17.43;;
24801;SDS011;12898;50.520;12.152;2023-03-03T10:34:58;33.43;;;16.67;;
24801;SDS011;12898;50.520;12.152;2023-03-03T10:40:57;32.23;;;15.03;;
24801;SDS011;12898;50.520;12.152;2023-03-03T10:46:40;32.83;;;16.93;;
24801;SDS011;12898;50.520;12.152;2023-03-03T10:58:36;33.20;;;15.97;;
24801;SDS011;12898;50.520;12.152;2023-03-03T11:01:34;35.10;;;15.97;;
24801;SDS011;12898;50.520;12.152;2023-03-03T11:04:19;33.13;;;15.60;;
24801;SDS011;12898;50.520;12.152;2023-03-03T11:07:21;30.83;;;16.17;;
24801;SDS011;12898;50.520;12.152;2023-03-03T11:13:31;35.83;;;16.53;;
24801;SDS011;12898;50.520;12.152;2023-03-03T11:19:05;34.50;;;18.03;;
24801;SDS011;12898;50.520;12.152;2023-03-03T11:28:36;32.23;;;15.07;;
24801;SDS011;12898;50.520;12.152;2023-03-03T11:36:32;30.70;;;15.77;;
24801;SDS011;12898;50.520;12.152;2023-03-03T11:39:21;31.57;;;16.00;;
24801;SDS011;12898;50.520;12.152;2023-03-03T11:42:08;38.73;;;17.47;;
24801;SDS011;12898;50.520;12.152;2023-03-03T11:44:49;36.07;;;17.07;;
24801;SDS011;12898;50.520;12.152;2023-03-03T12:03:30;31.00;;;15.03;;
24801;SDS011;12898;50.520;12.152;2023-03-03T12:06:50;35.80;;;15.67;;
24801;SDS011;12898;50.520;12.152;2023-03-03T12:09:27;33.37;;;16.13;;
24801;SDS011;12898;50.520;12.152;2023-03-03T12:12:16;38.80;;;17.17;;
24801;SDS011;12898;50.520;12.152;2023-03-03T12:23:19;32.47;;;16.97;;
24801;SDS011;12898;50.520;12.152;2023-03-03T12:26:10;31.33;;;14.93;;
24801;SDS011;12898;50.520;12.152;2023-03-03T12:28:52;33.10;;;16.37;;
24801;SDS011;12898;50.520;12.152;2023-03-03T12:31:28;33.43;;;15.07;;
24801;SDS011;12898;50.520;12.152;2023-03-03T12:42:29;37.60;;;18.70;;
24801;SDS011;12898;50.520;12.152;2023-03-03T12:45:17;37.57;;;19.37;;
24801;SDS011;12898;50.520;12.152;2023-03-03T12:48:51;34.07;;;17.73;;
24801;SDS011;12898;50.520;12.152;2023-03-03T13:08:38;34.30;;;15.93;;
24801;SDS011;12898;50.520;12.152;2023-03-03T13:11:18;44.67;;;22.57;;
24801;SDS011;12898;50.520;12.152;2023-03-03T13:14:14;36.97;;;19.00;;
24801;SDS011;12898;50.520;12.152;2023-03-03T13:19:31;35.60;;;18.10;;
24801;SDS011;12898;50.520;12.152;2023-03-03T13:22:27;35.00;;;15.97;;
24801;SDS011;12898;50.520;12.152;2023-03-03T13:31:01;32.23;;;14.77;;
24801;SDS011;12898;50.520;12.152;2023-03-03T13:33:35;31.73;;;14.23;;
24801;SDS011;12898;50.520;12.152;2023-03-03T13:36:02;28.40;;;14.33;;
24801;SDS011;12898;50.520;12.152;2023-03-03T13:38:39;29.87;;;14.73;;
24801;SDS011;12898;50.520;12.152;2023-03-03T13:41:24;30.67;;;14.47;;
24801;SDS011;12898;50.520;12.152;2023-03-03T13:44:18;32.10;;;15.10;;
24801;SDS011;12898;50.520;12.152;2023-03-03T13:55:49;32.97;;;16.87;;
24801;SDS011;12898;50.520;12.152;2023-03-03T14:01:26;31.77;;;15.60;;
24801;SDS011;12898;50.520;12.152;2023-03-03T14:13:06;35.33;;;17.57;;
24801;SDS011;12898;50.520;12.152;2023-03-03T14:18:34;34.17;;;15.97;;
24801;SDS011;12898;50.520;12.152;2023-03-03T14:24:03;35.13;;;16.33;;
24801;SDS011;12898;50.520;12.152;2023-03-03T14:26:43;31.23;;;15.03;;
24801;SDS011;12898;50.520;12.152;2023-03-03T14:29:19;35.17;;;19.77;;
24801;SDS011;12898;50.520;12.152;2023-03-03T14:31:59;35.03;;;17.73;;
24801;SDS011;12898;50.520;12.152;2023-03-03T14:34:39;32.23;;;15.57;;
24801;SDS011;12898;50.520;12.152;2023-03-03T14:37:22;32.63;;;15.73;;
24801;SDS011;12898;50.520;12.152;2023-03-03T14:42:46;25.20;;;12.80;;
24801;SDS011;12898;50.520;12.152;2023-03-03T14:45:34;25.97;;;13.63;;
24801;SDS011;12898;50.520;12.152;2023-03-03T14:48:18;26.43;;;15.33;;
24801;SDS011;12898;50.520;12.152;2023-03-03T14:50:55;31.37;;;15.07;;
24801;SDS011;12898;50.520;12.152;2023-03-03T14:53:41;35.20;;;16.37;;
24801;SDS011;12898;50.520;12.152;2023-03-03T14:59:11;23.80;;;12.97;;
24801;SDS011;12898;50.520;12.152;2023-03-03T15:01:50;24.43;;;12.20;;
24801;SDS011;12898;50.520;12.152;2023-03-03T15:04:41;25.47;;;12.23;;
24801;SDS011;12898;50.520;12.152;2023-03-03T15:09:59;23.70;;;11.73;;
24801;SDS011;12898;50.520;12.152;2023-03-03T15:27:52;18.83;;;9.57;;
24801;SDS011;12898;50.520;12.152;2023-03-03T15:30:50;18.53;;;8.57;;
24801;SDS011;12898;50.520;12.152;2023-03-03T15:39:38;24.73;;;11.57;;
24801;SDS011;12898;50.520;12.152;2023-03-03T15:42:26;23.60;;;10.63;;
24801;SDS011;12898;50.520;12.152;2023-03-03T15:48:00;18.90;;;9.90;;
24801;SDS011;12898;50.520;12.152;2023-03-03T15:59:20;23.63;;;11.27;;
24801;SDS011;12898;50.520;12.152;2023-03-03T16:05:02;24.57;;;13.87;;
24801;SDS011;12898;50.520;12.152;2023-03-03T16:16:31;25.10;;;14.20;;
24801;SDS011;12898;50.520;12.152;2023-03-03T16:19:12;26.20;;;14.23;;
24801;SDS011;12898;50.520;12.152;2023-03-03T16:22:02;23.53;;;12.23;;
24801;SDS011;12898;50.520;12.152;2023-03-03T16:30:57;25.87;;;11.93;;
24801;SDS011;12898;50.520;12.152;2023-03-03T16:34:00;28.27;;;14.23;;
24801;SDS011;12898;50.520;12.152;2023-03-03T16:39:44;27.17;;;13.97;;
24801;SDS011;12898;50.520;12.152;2023-03-03T16:42:28;27.87;;;13.57;;
24801;SDS011;12898;50.520;12.152;2023-03-03T16:50:58;28.80;;;14.53;;
24801;SDS011;12898;50.520;12.152;2023-03-03T16:53:50;31.70;;;14.93;;
24801;SDS011;12898;50.520;12.152;2023-03-03T16:56:45;31.73;;;14.97;;
24801;SDS011;12898;50.520;12.152;2023-03-03T17:08:31;32.87;;;15.77;;
24801;SDS011;12898;50.520;12.152;2023-03-03T17:11:25;33.17;;;15.70;;
24801;SDS011;12898;50.520;12.152;2023-03-03T17:22:44;29.80;;;16.10;;
24801;SDS011;12898;50.520;12.152;2023-03-03T17:25:33;31.20;;;16.43;;
24801;SDS011;12898;50.520;12.152;2023-03-03T17:42:13;34.67;;;16.77;;
24801;SDS011;12898;50.520;12.152;2023-03-03T17:44:49;36.33;;;17.60;;
24801;SDS011;12898;50.520;12.152;2023-03-03T17:53:51;34.27;;;16.73;;
24801;SDS011;12898;50.520;12.152;2023-03-03T17:56:37;38.97;;;18.53;;
24801;SDS011;12898;50.520;12.152;2023-03-03T18:02:12;36.77;;;18.13;;
24801;SDS011;12898;50.520;12.152;2023-03-03T18:13:48;35.17;;;16.57;;
24801;SDS011;12898;50.520;12.152;2023-03-03T18:23:29;37.23;;;17.37;;
24801;SDS011;12898;50.520;12.152;2023-03-03T18:32:22;39.87;;;17.57;;
24801;SDS011;12898;50.520;12.152;2023-03-03T18:34:42;40.93;;;17.73;;
24801;SDS011;12898;50.520;12.152;2023-03-03T18:42:41;38.93;;;17.93;;
24801;SDS011;12898;50.520;12.152;2023-03-03T18:45:51;38.47;;;17.33;;
24801;SDS011;12898;50.520;12.152;2023-03-03T18:48:08;35.60;;;16.70;;
24801;SDS011;12898;50.520;12.152;2023-03-03T18:50:41;39.80;;;17.93;;
24801;SDS011;12898;50.520;12.152;2023-03-03T18:58:26;35.40;;;16.43;;
24801;SDS011;12898;50.520;12.152;2023-03-03T19:04:17;34.47;;;15.67;;
24801;SDS011;12898;50.520;12.152;2023-03-03T19:09:17;36.00;;;16.57;;
24801;SDS011;12898;50.520;12.152;2023-03-03T19:12:08;34.87;;;15.77;;
24801;SDS011;12898;50.520;12.152;2023-03-03T19:14:43;36.70;;;16.10;;
24801;SDS011;12898;50.520;12.152;2023-03-03T19:25:42;31.30;;;13.93;;
24801;SDS011;12898;50.520;12.152;2023-03-03T19:33:39;30.03;;;13.60;;
24801;SDS011;12898;50.520;12.152;2023-03-03T19:58:58;26.53;;;11.77;;
24801;SDS011;12898;50.520;12.152;2023-03-03T20:01:45;25.53;;;12.20;;
24801;SDS011;12898;50.520;12.152;2023-03-03T20:04:35;25.83;;;12.67;;
24801;SDS011;12898;50.520;12.152;2023-03-03T20:16:08;28.80;;;13.07;;
24801;SDS011;12898;50.520;12.152;2023-03-03T20:24:40;27.00;;;12.57;;
24801;SDS011;12898;50.520;12.152;2023-03-03T20:27:18;26.53;;;12.37;;
24801;SDS011;12898;50.520;12.152;2023-03-03T20:39:12;25.73;;;12.90;;
24801;SDS011;12898;50.520;12.152;2023-03-03T20:42:31;26.00;;;12.43;;
24801;SDS011;12898;50.520;12.152;2023-03-03T20:49:16;29.60;;;13.97;;
24801;SDS011;12898;50.520;12.152;2023-03-03T20:52:01;27.93;;;14.07;;
24801;SDS011;12898;50.520;12.152;2023-03-03T20:54:50;28.70;;;13.60;;
24801;SDS011;12898;50.520;12.152;2023-03-03T21:08:38;27.77;;;13.07;;
24801;SDS011;12898;50.520;12.152;2023-03-03T21:13:56;24.90;;;12.57;;
24801;SDS011;12898;50.520;12.152;2023-03-03T21:21:37;24.80;;;12.87;;
24801;SDS011;12898;50.520;12.152;2023-03-03T21:24:05;24.10;;;12.63;;
24801;SDS011;12898;50.520;12.152;2023-03-03T21:26:47;25.23;;;13.37;;
24801;SDS011;12898;50.520;12.152;2023-03-03T21:29:25;25.23;;;12.53;;
24801;SDS011;12898;50.520;12.152;2023-03-03T21:31:58;26.50;;;11.63;;
24801;SDS011;12898;50.520;12.152;2023-03-03T21:34:29;25.73;;;13.43;;
24801;SDS011;12898;50.520;12.152;2023-03-03T21:36:58;23.20;;;11.90;;
24801;SDS011;12898;50.520;12.152;2023-03-03T21:42:01;24.07;;;12.77;;
24801;SDS011;12898;50.520;12.152;2023-03-03T21:45:14;24.63;;;12.53;;
24801;SDS011;12898;50.520;12.152;2023-03-03T21:47:41;21.33;;;11.63;;
24801;SDS011;12898;50.520;12.152;2023-03-03T21:50:07;24.60;;;12.53;;
24801;SDS011;12898;50.520;12.152;2023-03-03T21:52:33;23.87;;;12.57;;
24801;SDS011;12898;50.520;12.152;2023-03-03T21:54:59;25.13;;;12.53;;
24801;SDS011;12898;50.520;12.152;2023-03-03T21:57:25;25.80;;;12.73;;
24801;SDS011;12898;50.520;12.152;2023-03-03T21:59:50;26.50;;;16.13;;
24801;SDS011;12898;50.520;12.152;2023-03-03T22:02:17;24.63;;;15.30;;
24801;SDS011;12898;50.520;12.152;2023-03-03T22:04:43;24.43;;;13.83;;